createdAt,value
2018-08-25T00:01:24.546Z,79.40
2018-08-25T00:03:52.871Z,79.40
2018-08-25T00:06:21.158Z,79.50
2018-08-25T00:08:49.465Z,79.40
2018-08-25T00:11:17.719Z,79.40
2018-08-25T00:13:45.966Z,79.10
2018-08-25T00:16:14.246Z,79.50
2018-08-25T00:18:42.511Z,80.10
2018-08-25T00:21:10.886Z,80.20
2018-08-25T00:23:39.357Z,80.50
2018-08-25T00:26:07.657Z,80.70
2018-08-25T00:28:36.000Z,80.80
2018-08-25T00:31:09.542Z,80.60
2018-08-25T00:33:38.070Z,81.10
2018-08-25T00:36:06.326Z,80.80
2018-08-25T00:38:34.661Z,80.90
2018-08-25T00:41:02.914Z,81.10
2018-08-25T00:43:31.250Z,80.60
2018-08-25T00:45:59.493Z,80.50
2018-08-25T00:48:27.772Z,80.40
2018-08-25T00:50:56.035Z,80.90
2018-08-25T00:53:24.263Z,81.10
2018-08-25T00:55:52.595Z,81.00
2018-08-25T00:58:21.123Z,81.00
2018-08-25T01:00:49.383Z,81.00
2018-08-25T01:03:17.683Z,81.10
2018-08-25T01:05:45.941Z,81.30
2018-08-25T01:08:14.318Z,81.20
2018-08-25T01:10:42.570Z,81.10
2018-08-25T01:13:10.813Z,81.20
2018-08-25T01:15:39.287Z,81.70
2018-08-25T01:18:07.775Z,82.00
2018-08-25T01:20:36.003Z,81.60
2018-08-25T01:23:04.249Z,82.10
2018-08-25T01:25:32.605Z,82.20
2018-08-25T01:28:00.931Z,82.30
2018-08-25T01:30:29.221Z,82.80
2018-08-25T01:32:57.475Z,82.60
2018-08-25T01:35:25.727Z,82.90
2018-08-25T01:37:54.036Z,82.90
2018-08-25T01:40:22.382Z,82.60
2018-08-25T01:42:50.659Z,82.80
2018-08-25T01:45:18.959Z,82.90
2018-08-25T01:47:47.238Z,83.00
2018-08-25T01:50:15.640Z,83.40
2018-08-25T01:52:43.923Z,83.30
2018-08-25T01:55:12.230Z,83.20
2018-08-25T01:57:40.541Z,83.80
2018-08-25T02:00:08.786Z,84.60
2018-08-25T02:02:37.125Z,84.40
2018-08-25T02:05:05.351Z,84.70
2018-08-25T02:07:33.947Z,84.90
2018-08-25T02:10:02.200Z,84.10
2018-08-25T02:12:30.625Z,84.70
2018-08-25T02:14:58.979Z,84.60
2018-08-25T02:17:27.347Z,84.70
2018-08-25T02:19:55.614Z,85.00
2018-08-25T02:22:24.028Z,85.50
2018-08-25T02:24:52.315Z,85.80
2018-08-25T02:27:20.546Z,86.10
2018-08-25T02:29:48.931Z,86.40
2018-08-25T02:32:17.208Z,87.00
2018-08-25T02:34:45.463Z,86.40
2018-08-25T02:37:13.757Z,86.40
2018-08-25T02:39:42.042Z,86.60
2018-08-25T02:42:10.275Z,87.10
2018-08-25T02:44:38.531Z,87.60
2018-08-25T02:47:06.780Z,88.60
2018-08-25T02:49:35.049Z,89.10
2018-08-25T02:52:03.306Z,89.50
2018-08-25T02:54:31.591Z,90.40
2018-08-25T02:56:59.859Z,91.30
2018-08-25T02:59:28.156Z,92.20
2018-08-25T03:01:56.431Z,93.50
2018-08-25T03:04:24.690Z,94.10
2018-08-25T03:06:52.971Z,94.90
2018-08-25T03:09:21.250Z,95.70
2018-08-25T03:11:49.559Z,96.20
2018-08-25T03:14:17.837Z,96.50
2018-08-25T03:16:46.958Z,98.10
2018-08-25T03:19:15.272Z,98.40
2018-08-25T03:21:43.557Z,98.20
2018-08-25T03:24:11.857Z,99.70
2018-08-25T03:26:40.140Z,99.90
2018-08-25T03:29:08.376Z,99.90
2018-08-25T03:31:36.670Z,99.90
2018-08-25T03:34:04.977Z,99.90
2018-08-25T03:36:33.215Z,99.90
2018-08-25T03:39:01.477Z,99.90
2018-08-25T03:41:29.719Z,99.90
2018-08-25T03:43:57.951Z,99.90
2018-08-25T03:46:26.214Z,99.90
2018-08-25T03:48:54.475Z,99.90
2018-08-25T03:51:22.717Z,99.90
2018-08-25T03:53:50.954Z,99.90
2018-08-25T03:56:19.194Z,99.90
2018-08-25T03:58:47.447Z,99.90
2018-08-25T04:01:15.681Z,99.90
2018-08-25T04:03:43.969Z,99.90
2018-08-25T04:06:12.201Z,99.90
2018-08-25T04:08:40.444Z,99.90
2018-08-25T04:11:08.727Z,99.90
2018-08-25T04:13:36.966Z,99.90
2018-08-25T04:16:05.293Z,99.90
2018-08-25T04:18:33.594Z,99.90
2018-08-25T04:21:01.903Z,99.90
2018-08-25T04:23:30.141Z,99.90
2018-08-25T04:25:58.359Z,99.90
2018-08-25T04:28:26.602Z,99.90
2018-08-25T04:30:54.862Z,99.90
2018-08-25T04:33:23.100Z,99.90
2018-08-25T04:35:51.330Z,99.90
2018-08-25T04:38:19.556Z,99.90
2018-08-25T04:40:47.796Z,99.90
2018-08-25T04:43:16.034Z,99.90
2018-08-25T04:45:44.263Z,99.90
2018-08-25T04:48:12.520Z,99.90
2018-08-25T04:50:40.771Z,99.90
2018-08-25T04:53:09.031Z,99.90
2018-08-25T04:55:37.368Z,99.90
2018-08-25T04:58:05.631Z,99.90
2018-08-25T05:00:33.858Z,99.90
2018-08-25T05:03:02.087Z,99.90
2018-08-25T05:05:30.338Z,99.90
2018-08-25T05:07:58.582Z,99.90
2018-08-25T05:10:26.960Z,99.90
2018-08-25T05:12:55.237Z,99.90
2018-08-25T05:15:23.516Z,99.90
2018-08-25T05:17:51.755Z,99.90
2018-08-25T05:20:20.031Z,99.90
2018-08-25T05:22:48.276Z,99.90
2018-08-25T05:25:16.530Z,99.90
2018-08-25T05:27:44.765Z,99.90
2018-08-25T05:30:13.008Z,99.90
2018-08-25T05:32:41.275Z,99.90
2018-08-25T05:35:09.595Z,99.90
2018-08-25T05:37:37.836Z,99.90
2018-08-25T05:40:06.186Z,99.90
2018-08-25T05:42:34.488Z,99.90
2018-08-25T05:45:02.854Z,99.90
2018-08-25T05:47:31.120Z,99.90
2018-08-25T05:49:59.354Z,99.90
2018-08-25T05:52:27.626Z,99.90
2018-08-25T05:54:55.886Z,99.90
2018-08-25T05:57:24.168Z,99.90
2018-08-25T05:59:52.435Z,99.90
2018-08-25T06:02:20.695Z,99.90
2018-08-25T06:04:48.958Z,99.90
2018-08-25T06:07:17.336Z,99.90
2018-08-25T06:09:45.582Z,99.90
2018-08-25T06:12:13.819Z,99.90
2018-08-25T06:14:42.073Z,99.90
2018-08-25T06:17:10.375Z,99.90
2018-08-25T06:19:38.625Z,99.90
2018-08-25T06:22:06.907Z,99.90
2018-08-25T06:24:35.178Z,99.90
2018-08-25T06:27:03.414Z,99.90
2018-08-25T06:29:31.749Z,99.90
2018-08-25T06:31:59.994Z,99.90
2018-08-25T06:34:28.256Z,99.90
2018-08-25T06:36:56.509Z,99.90
2018-08-25T06:39:24.899Z,99.90
2018-08-25T06:41:53.065Z,99.90
2018-08-25T06:44:21.300Z,99.90
2018-08-25T06:46:49.512Z,99.90
2018-08-25T06:49:17.798Z,99.90
2018-08-25T06:51:46.062Z,99.90
2018-08-25T06:54:14.299Z,99.90
2018-08-25T06:56:42.628Z,99.90
2018-08-25T06:59:11.649Z,99.90
2018-08-25T07:01:40.661Z,99.90
2018-08-25T07:04:08.935Z,99.90
2018-08-25T07:06:38.871Z,99.90
2018-08-25T07:09:09.291Z,99.90
2018-08-25T07:11:37.642Z,99.90
2018-08-25T07:14:05.901Z,99.90
2018-08-25T07:16:41.520Z,99.90
2018-08-25T07:21:53.785Z,99.90
2018-08-25T07:24:22.042Z,99.90
2018-08-25T07:42:06.567Z,99.90
2018-08-25T07:44:49.641Z,99.90
2018-08-25T07:50:14.259Z,99.90
2018-08-25T07:57:04.883Z,99.90
2018-08-25T07:59:33.179Z,99.90
2018-08-25T08:02:01.452Z,99.90
2018-08-25T08:04:29.784Z,99.90
2018-08-25T08:06:58.050Z,99.90
2018-08-25T08:09:26.343Z,99.90
2018-08-25T08:11:54.713Z,99.90
2018-08-25T08:14:22.834Z,99.90
2018-08-25T08:16:51.096Z,99.90
2018-08-25T08:19:19.447Z,99.90
2018-08-25T08:21:47.715Z,99.90
2018-08-25T08:24:16.003Z,99.90
2018-08-25T08:26:44.268Z,99.90
2018-08-25T08:29:12.507Z,99.90
2018-08-25T08:31:40.823Z,99.90
2018-08-25T08:34:09.088Z,99.90
2018-08-25T08:36:37.431Z,99.90
2018-08-25T08:39:08.504Z,99.90
2018-08-25T08:41:36.787Z,99.90
2018-08-25T08:44:05.028Z,99.90
2018-08-25T08:46:34.271Z,99.90
2018-08-25T08:49:03.565Z,99.90
2018-08-25T08:51:32.032Z,99.80
2018-08-25T08:54:00.532Z,99.70
2018-08-25T08:56:28.926Z,99.50
2018-08-25T08:58:57.535Z,99.50
2018-08-25T09:01:26.250Z,98.80
2018-08-25T09:03:54.559Z,98.40
2018-08-25T09:06:22.859Z,98.10
2018-08-25T09:08:51.636Z,97.80
2018-08-25T09:11:20.004Z,97.20
2018-08-25T09:13:48.600Z,97.80
2018-08-25T09:16:16.853Z,96.40
2018-08-25T09:18:45.163Z,95.50
2018-08-25T09:21:13.458Z,94.70
2018-08-25T09:23:41.759Z,95.50
2018-08-25T09:26:09.998Z,94.90
2018-08-25T09:28:38.258Z,95.70
2018-08-25T09:31:06.489Z,95.50
2018-08-25T09:33:34.753Z,95.40
2018-08-25T09:36:03.145Z,95.90
2018-08-25T09:38:31.481Z,95.70
2018-08-25T09:40:59.763Z,95.50
2018-08-25T09:43:28.068Z,94.30
2018-08-25T09:45:56.347Z,94.70
2018-08-25T09:48:24.597Z,94.50
2018-08-25T09:50:52.903Z,94.50
2018-08-25T09:53:21.486Z,94.70
2018-08-25T09:55:49.688Z,94.60
2018-08-25T09:58:17.934Z,94.70
2018-08-25T10:00:46.256Z,93.40
2018-08-25T10:03:14.559Z,93.20
2018-08-25T10:05:42.796Z,94.00
2018-08-25T10:08:11.037Z,93.60
2018-08-25T10:10:39.391Z,94.20
2018-08-25T10:13:07.611Z,94.20
2018-08-25T10:15:35.876Z,94.60
2018-08-25T10:18:04.129Z,94.00
2018-08-25T10:20:32.356Z,93.30
2018-08-25T10:23:00.688Z,92.40
2018-08-25T10:25:28.979Z,92.50
2018-08-25T10:27:57.275Z,92.80
2018-08-25T10:30:25.521Z,92.40
2018-08-25T10:32:53.773Z,92.50
2018-08-25T10:35:22.047Z,92.00
2018-08-25T10:37:50.266Z,92.10
2018-08-25T10:40:18.664Z,91.90
2018-08-25T10:42:47.277Z,92.90
2018-08-25T10:45:15.626Z,92.80
2018-08-25T10:47:43.953Z,92.20
2018-08-25T10:50:12.208Z,92.00
2018-08-25T10:52:40.844Z,91.30
2018-08-25T10:55:09.149Z,91.30
2018-08-25T10:57:37.421Z,91.30
2018-08-25T11:00:05.927Z,91.10
2018-08-25T11:02:34.580Z,91.00
2018-08-25T11:05:02.859Z,91.20
2018-08-25T11:07:31.181Z,90.90
2018-08-25T11:09:59.452Z,90.90
2018-08-25T11:12:27.692Z,89.90
2018-08-25T11:14:55.947Z,90.50
2018-08-25T11:17:24.172Z,91.50
2018-08-25T11:19:52.410Z,92.00
2018-08-25T11:22:20.637Z,92.40
2018-08-25T11:24:48.856Z,92.10
2018-08-25T11:27:17.085Z,91.20
2018-08-25T11:29:45.331Z,91.00
2018-08-25T11:32:13.591Z,91.30
2018-08-25T11:34:41.970Z,91.50
2018-08-25T11:37:10.388Z,91.30
2018-08-25T11:39:38.572Z,91.20
2018-08-25T11:42:06.898Z,91.30
2018-08-25T11:44:35.188Z,92.40
2018-08-25T11:47:07.647Z,93.70
2018-08-25T11:49:35.939Z,95.30
2018-08-25T11:52:04.214Z,95.70
2018-08-25T11:54:32.479Z,95.20
2018-08-25T11:57:00.774Z,94.50
2018-08-25T11:59:29.040Z,94.50
2018-08-25T12:01:57.290Z,93.20
2018-08-25T12:04:25.547Z,92.40
2018-08-25T12:06:53.826Z,92.30
2018-08-25T12:09:22.074Z,91.10
2018-08-25T12:11:50.274Z,90.00
2018-08-25T12:14:18.482Z,88.20
2018-08-25T12:16:46.761Z,88.40
2018-08-25T12:19:15.043Z,89.60
2018-08-25T12:21:43.371Z,90.10
2018-08-25T12:24:11.636Z,89.40
2018-08-25T12:26:39.964Z,90.30
2018-08-25T12:29:08.171Z,90.10
2018-08-25T12:31:36.435Z,90.00
2018-08-25T12:34:04.697Z,89.40
2018-08-25T12:36:32.960Z,89.10
2018-08-25T12:39:01.225Z,89.90
2018-08-25T12:41:29.531Z,90.60
2018-08-25T12:43:57.779Z,90.70
2018-08-25T12:46:26.019Z,91.50
2018-08-25T12:48:54.382Z,92.20
2018-08-25T12:51:22.631Z,93.60
2018-08-25T12:53:50.864Z,94.60
2018-08-25T12:56:19.090Z,95.90
2018-08-25T12:58:47.306Z,97.50
2018-08-25T13:01:15.504Z,99.90
2018-08-25T13:03:43.845Z,99.90
2018-08-25T13:06:12.196Z,99.90
2018-08-25T13:08:40.537Z,99.90
2018-08-25T13:11:08.777Z,99.90
2018-08-25T13:13:37.151Z,99.90
2018-08-25T13:16:05.588Z,99.90
2018-08-25T13:18:33.839Z,99.90
2018-08-25T13:21:02.076Z,99.90
2018-08-25T13:23:30.418Z,99.90
2018-08-25T13:25:58.550Z,99.90
2018-08-25T13:28:26.871Z,99.90
2018-08-25T13:30:55.228Z,99.90
2018-08-25T13:33:23.408Z,99.90
2018-08-25T13:35:51.662Z,99.90
2018-08-25T13:38:19.900Z,99.90
2018-08-25T13:40:48.298Z,99.90
2018-08-25T13:43:16.516Z,99.90
2018-08-25T13:45:44.732Z,99.90
2018-08-25T13:48:12.981Z,99.90
2018-08-25T13:50:41.208Z,99.10
2018-08-25T13:53:09.454Z,99.20
2018-08-25T13:55:37.728Z,99.00
2018-08-25T13:58:05.984Z,98.40
2018-08-25T14:00:34.201Z,97.00
2018-08-25T14:03:02.475Z,99.90
2018-08-25T14:05:30.719Z,99.90
2018-08-25T14:07:58.968Z,99.90
2018-08-25T14:10:27.322Z,99.90
2018-08-25T14:12:55.788Z,99.90
2018-08-25T14:15:24.094Z,99.90
2018-08-25T14:17:52.363Z,99.90
2018-08-25T14:20:20.591Z,99.90
2018-08-25T14:22:48.839Z,99.90
2018-08-25T14:25:17.069Z,99.90
2018-08-25T14:27:45.343Z,99.90
2018-08-25T14:30:13.603Z,99.90
2018-08-25T14:32:42.390Z,99.90
2018-08-25T14:35:10.621Z,99.90
2018-08-25T14:37:39.551Z,99.90
2018-08-25T14:40:07.849Z,99.90
2018-08-25T14:42:36.142Z,99.90
2018-08-25T14:45:04.399Z,99.90
2018-08-25T14:47:32.675Z,99.90
2018-08-25T14:50:01.039Z,99.60
2018-08-25T14:52:29.294Z,96.30
2018-08-25T14:54:57.613Z,96.80
2018-08-25T14:57:26.347Z,97.60
2018-08-25T14:59:54.570Z,99.30
2018-08-25T15:02:22.922Z,98.10
2018-08-25T15:04:51.194Z,96.00
2018-08-25T15:07:19.441Z,96.40
2018-08-25T15:09:47.718Z,96.10
2018-08-25T15:12:15.947Z,97.40
2018-08-25T15:14:44.224Z,96.90
2018-08-25T15:17:12.509Z,97.40
2018-08-25T15:19:40.759Z,96.40
2018-08-25T15:22:08.999Z,97.10
2018-08-25T15:24:37.762Z,97.10
2018-08-25T15:27:06.071Z,98.00
2018-08-25T15:29:34.396Z,96.80
2018-08-25T15:32:02.802Z,97.70
2018-08-25T15:34:31.041Z,96.10
2018-08-25T15:36:59.279Z,96.90
2018-08-25T15:39:27.516Z,96.80
2018-08-25T15:41:55.755Z,96.80
2018-08-25T15:44:24.088Z,96.70
2018-08-25T15:46:52.311Z,96.20
2018-08-25T15:49:20.643Z,96.10
2018-08-25T15:51:49.197Z,93.60
2018-08-25T15:54:17.380Z,93.40
2018-08-25T15:56:45.620Z,93.50
2018-08-25T15:59:13.875Z,93.10
2018-08-25T16:01:42.145Z,92.50
2018-08-25T16:04:10.411Z,91.10
2018-08-25T16:06:38.687Z,87.90
2018-08-25T16:09:08.974Z,86.60
2018-08-25T16:11:37.351Z,84.50
2018-08-25T16:14:05.576Z,84.60
2018-08-25T16:16:33.849Z,83.40
2018-08-25T16:19:02.131Z,83.20
2018-08-25T16:24:09.229Z,83.20
2018-08-25T16:26:37.610Z,85.00
2018-08-25T16:29:05.904Z,84.40
2018-08-25T16:31:34.182Z,84.50
2018-08-25T16:34:02.443Z,83.70
2018-08-25T16:36:30.756Z,85.00
2018-08-25T16:38:59.012Z,85.20
2018-08-25T16:41:27.272Z,84.00
2018-08-25T16:43:55.645Z,88.40
2018-08-25T16:46:23.923Z,90.10
2018-08-25T16:48:52.223Z,90.60
2018-08-25T16:51:20.579Z,91.40
2018-08-25T16:53:48.860Z,92.00
2018-08-25T16:56:17.931Z,91.60
2018-08-25T16:58:46.201Z,92.20
2018-08-25T17:01:14.485Z,92.50
2018-08-25T17:03:42.812Z,93.00
2018-08-25T17:06:11.273Z,93.20
2018-08-25T17:08:39.644Z,93.50
2018-08-25T17:11:07.921Z,93.10
2018-08-25T17:13:36.239Z,93.10
2018-08-25T17:16:04.511Z,94.20
2018-08-25T17:18:32.859Z,94.00
2018-08-25T17:21:01.111Z,93.90
2018-08-25T17:23:29.361Z,93.70
2018-08-25T17:25:57.636Z,93.90
2018-08-25T17:28:25.908Z,93.80
2018-08-25T17:30:54.187Z,94.30
2018-08-25T17:33:22.486Z,95.10
2018-08-25T17:35:50.986Z,94.60
2018-08-25T17:38:19.324Z,94.20
2018-08-25T17:40:47.548Z,94.40
2018-08-25T17:43:15.847Z,94.50
2018-08-25T17:45:44.267Z,95.00
2018-08-25T17:48:12.559Z,95.20
2018-08-25T17:50:40.862Z,95.20
2018-08-25T17:53:09.136Z,95.40
2018-08-25T17:55:37.457Z,95.80
2018-08-25T17:58:05.815Z,95.90
2018-08-25T18:00:34.192Z,96.50
2018-08-25T18:03:02.458Z,96.90
2018-08-25T18:05:30.779Z,97.10
2018-08-25T18:07:59.071Z,97.10
2018-08-25T18:10:27.485Z,97.40
2018-08-25T18:12:55.768Z,97.90
2018-08-25T18:15:24.016Z,98.00
2018-08-25T18:17:52.287Z,97.90
2018-08-25T18:20:20.512Z,98.30
2018-08-25T18:22:48.803Z,98.20
2018-08-25T18:25:17.121Z,98.50
2018-08-25T18:27:45.364Z,98.30
2018-08-25T18:30:13.773Z,98.40
2018-08-25T18:32:42.054Z,98.60
2018-08-25T18:35:10.349Z,99.20
2018-08-25T18:37:38.763Z,99.00
2018-08-25T18:40:09.069Z,98.50
2018-08-25T18:42:37.404Z,98.80
2018-08-25T18:45:05.912Z,98.60
2018-08-25T18:47:34.568Z,98.60
2018-08-25T18:50:02.830Z,98.50
2018-08-25T18:52:31.187Z,99.10
2018-08-25T18:55:00.175Z,98.80
2018-08-25T18:57:28.378Z,99.10
2018-08-25T18:59:56.636Z,99.60
2018-08-25T19:02:24.967Z,99.50
2018-08-25T19:04:53.271Z,99.60
2018-08-25T19:07:21.586Z,99.60
2018-08-25T19:09:49.858Z,99.20
2018-08-25T19:12:18.126Z,99.50
2018-08-25T19:14:46.419Z,99.40
2018-08-25T19:17:14.683Z,99.10
2018-08-25T19:19:42.946Z,99.50
2018-08-25T19:22:11.323Z,99.40
2018-08-25T19:24:39.627Z,99.60
2018-08-25T19:27:08.307Z,99.60
2018-08-25T19:29:36.680Z,99.50
2018-08-25T19:32:05.080Z,99.10
2018-08-25T19:34:34.282Z,99.40
2018-08-25T19:37:02.622Z,99.70
2018-08-25T19:39:30.897Z,99.90
2018-08-25T19:41:59.686Z,99.90
2018-08-25T19:44:32.093Z,99.90
2018-08-25T19:47:00.760Z,99.90
2018-08-25T19:49:29.051Z,99.90
2018-08-25T19:52:05.888Z,99.90
2018-08-25T21:11:48.424Z,99.90
2018-08-25T21:14:16.713Z,99.90
2018-08-25T21:16:46.024Z,99.90
2018-08-25T21:19:14.772Z,99.90
2018-08-25T21:21:43.280Z,99.90
2018-08-25T21:24:11.948Z,99.90
2018-08-25T21:26:40.375Z,99.90
2018-08-25T21:29:08.894Z,99.90
2018-08-25T21:31:38.002Z,99.90
2018-08-25T21:34:07.452Z,99.90
2018-08-25T21:36:37.956Z,99.90
2018-08-25T21:39:13.041Z,99.90
2018-08-25T21:41:42.281Z,99.90
2018-08-25T21:44:10.768Z,99.90
2018-08-25T21:46:39.067Z,99.90
2018-08-25T21:49:07.811Z,99.90
2018-08-25T21:51:36.738Z,99.90
2018-08-25T21:54:06.705Z,99.90
2018-08-25T21:56:35.243Z,99.90
2018-08-25T21:59:03.736Z,99.90
2018-08-25T22:01:38.158Z,99.90
2018-08-25T22:04:06.830Z,99.90
2018-08-25T22:06:35.378Z,99.90
2018-08-25T22:09:04.837Z,99.90
2018-08-25T22:11:33.449Z,99.90
2018-08-25T22:14:02.345Z,99.90
2018-08-25T22:16:37.832Z,99.90
2018-08-25T22:19:12.464Z,99.90
2018-08-25T22:21:42.535Z,99.90
2018-08-25T22:24:11.500Z,99.90
2018-08-25T22:26:41.069Z,99.90
2018-08-25T22:29:11.833Z,99.90
2018-08-25T22:31:40.829Z,99.90
2018-08-25T22:34:13.778Z,99.90
2018-08-25T22:36:58.743Z,99.90
2018-08-25T22:39:27.388Z,99.90
2018-08-25T22:41:56.044Z,99.90
2018-08-25T22:44:28.808Z,99.90
2018-08-25T22:46:57.368Z,99.90
2018-08-25T22:49:25.843Z,99.90
2018-08-25T22:51:54.435Z,99.90
2018-08-25T22:54:26.120Z,99.90
2018-08-25T22:56:54.804Z,99.90
2018-08-25T22:59:32.033Z,99.90
2018-08-25T23:02:00.579Z,99.90
2018-08-25T23:04:29.244Z,99.90
2018-08-25T23:06:57.939Z,99.90
2018-08-25T23:09:26.854Z,99.90
2018-08-25T23:11:55.224Z,99.90
2018-08-25T23:14:33.776Z,99.90
2018-08-25T23:20:05.678Z,99.90
2018-08-25T23:22:33.944Z,99.90
2018-08-25T23:25:02.208Z,99.90
2018-08-25T23:27:30.503Z,99.90
2018-08-25T23:29:58.787Z,99.90
2018-08-25T23:32:32.115Z,99.90
2018-08-25T23:35:00.597Z,99.90
2018-08-25T23:37:28.851Z,99.90
2018-08-25T23:39:57.088Z,99.90
2018-08-25T23:42:25.380Z,99.90
2018-08-25T23:44:53.656Z,99.90
2018-08-25T23:47:21.894Z,99.90
2018-08-25T23:49:50.157Z,99.90
2018-08-25T23:52:18.422Z,99.90
2018-08-25T23:54:46.687Z,99.90
2018-08-25T23:57:14.963Z,99.90
2018-08-25T23:59:43.252Z,99.90
